Time;durP1;ratioP1;P1;durP2;ratioP2;P2;SDS_P1;SDS_P2;PMS_P1;PMS_P2;Temp;Humidity;BMP_temperature;BMP_pressure;BME280_temperature;BME280_humidity;BME280_pressure;Samples;Min_cycle;Max_cycle;Signal;HPM_P1;HPM_P2
2023/07/16 00:01:59;;;;;;;;;;;24.80;55.60;;;;;;4155759;28;19936;-51
2023/07/16 00:04:40;;;;;;;;;;;24.80;55.70;;;;;;4154186;28;19932;-49
2023/07/16 00:07:22;;;;;;;;;;;24.80;56.40;;;;;;4171664;28;19935;-50
2023/07/16 00:10:03;;;;;;;;;;;24.80;55.80;;;;;;4171991;28;20062;-48
2023/07/16 00:12:44;;;;;;;;;;;24.80;55.70;;;;;;4172350;28;19931;-49
2023/07/16 00:15:25;;;;;;;;;;;24.80;55.80;;;;;;4171333;28;19982;-50
2023/07/16 00:18:06;;;;;;;;;;;24.80;55.80;;;;;;4171635;28;20060;-54
2023/07/16 00:20:47;;;;;;;;;;;24.70;55.70;;;;;;4170974;28;19936;-53
2023/07/16 00:23:28;;;;;;;;;;;24.70;55.70;;;;;;4166537;28;19932;-53
2023/07/16 00:26:09;;;;;;;;;;;24.70;55.70;;;;;;4139088;28;20367;-54
2023/07/16 00:28:50;;;;;;;;;;;24.60;55.50;;;;;;4150056;28;19936;-53
2023/07/16 00:31:31;;;;;;;;;;;24.60;55.40;;;;;;4141181;28;19932;-52
2023/07/16 00:34:13;;;;;;;;;;;24.60;55.40;;;;;;4147751;28;19936;-51
2023/07/16 00:36:54;;;;;;;;;;;24.60;55.30;;;;;;4167815;28;19932;-50
2023/07/16 00:39:35;;;;;;;;;;;24.50;55.20;;;;;;4170226;28;20011;-55
2023/07/16 00:42:16;;;;;;;;;;;24.50;55.10;;;;;;4169949;28;19974;-53
2023/07/16 00:44:57;;;;;;;;;;;24.50;55.10;;;;;;4171080;28;19948;-51
2023/07/16 00:47:38;;;;;;;;;;;24.50;55.00;;;;;;4171217;28;19975;-53
2023/07/16 00:50:20;;;;;;;;;;;24.50;55.80;;;;;;4171116;28;19973;-51
2023/07/16 00:53:02;;;;;;;;;;;24.50;55.20;;;;;;4169568;28;20398;-52
2023/07/16 00:55:43;;;;;;;;;;;24.50;55.30;;;;;;4170138;28;19936;-53
2023/07/16 00:58:24;;;;;;;;;;;24.40;55.20;;;;;;4170022;28;19935;-52
2023/07/16 01:01:05;;;;;;;;;;;24.40;55.30;;;;;;4171336;28;19948;-51
2023/07/16 01:03:46;;;;;;;;;;;24.40;55.40;;;;;;4160614;28;19936;-52
2023/07/16 01:06:34;;;;;;;;;;;24.40;55.30;;;;;;4153180;28;19935;-53
2023/07/16 01:09:16;;;;;;;;;;;24.40;55.30;;;;;;4154478;28;20059;-51
2023/07/16 01:11:58;;;;;;;;;;;24.40;55.20;;;;;;4153438;28;19947;-50
2023/07/16 01:14:40;;;;;;;;;;;24.40;55.30;;;;;;4153714;28;19932;-47
2023/07/16 01:17:21;;;;;;;;;;;24.30;55.30;;;;;;4157193;28;19988;-48
2023/07/16 01:20:03;;;;;;;;;;;24.30;55.40;;;;;;4156336;28;20071;-48
2023/07/16 01:23:09;;;;;;;;;;;24.30;55.40;;;;;;4162529;28;20398;-46
2023/07/16 01:25:59;;;;;;;;;;;24.30;55.50;;;;;;4157846;28;19979;-47
2023/07/16 01:28:51;;;;;;;;;;;24.30;55.30;;;;;;4170576;28;20383;-45
2023/07/16 01:31:33;;;;;;;;;;;24.20;55.30;;;;;;4157347;28;19967;-51
2023/07/16 01:34:15;;;;;;;;;;;24.20;55.30;;;;;;4144801;28;20300;-50
2023/07/16 01:36:56;;;;;;;;;;;24.20;56.20;;;;;;4172487;28;19982;-47
2023/07/16 01:39:37;;;;;;;;;;;24.20;55.40;;;;;;4174553;28;19974;-49
2023/07/16 01:42:17;;;;;;;;;;;24.20;55.40;;;;;;4160174;28;20043;-48
2023/07/16 01:44:58;;;;;;;;;;;24.20;56.20;;;;;;4157174;28;19986;-49
2023/07/16 01:47:47;;;;;;;;;;;24.20;55.60;;;;;;4155647;28;20060;-49
2023/07/16 01:50:28;;;;;;;;;;;24.20;55.60;;;;;;4157179;28;19932;-48
2023/07/16 01:53:08;;;;;;;;;;;24.10;55.60;;;;;;4157477;28;20410;-50
2023/07/16 01:55:49;;;;;;;;;;;24.10;55.70;;;;;;4157297;28;19959;-51
2023/07/16 01:58:30;;;;;;;;;;;24.10;55.70;;;;;;4156984;28;19983;-48
2023/07/16 02:01:11;;;;;;;;;;;24.10;55.80;;;;;;4151571;28;19969;-46
2023/07/16 02:03:53;;;;;;;;;;;24.10;55.90;;;;;;4173980;28;19936;-50
2023/07/16 02:06:34;;;;;;;;;;;24.10;56.00;;;;;;4174015;28;20066;-47
2023/07/16 02:09:15;;;;;;;;;;;24.10;56.00;;;;;;4173293;28;19986;-47
2023/07/16 02:11:56;;;;;;;;;;;24.10;56.10;;;;;;4158988;28;19936;-47
2023/07/16 02:14:37;;;;;;;;;;;24.10;56.20;;;;;;4156348;28;19936;-49
2023/07/16 02:17:17;;;;;;;;;;;24.10;56.30;;;;;;4156054;28;19931;-48
2023/07/16 02:20:00;;;;;;;;;;;24.10;56.40;;;;;;4144522;28;19936;-49
2023/07/16 02:22:40;;;;;;;;;;;24.10;56.50;;;;;;4156949;28;19966;-50
2023/07/16 02:25:21;;;;;;;;;;;24.00;56.60;;;;;;4157131;28;20402;-47
2023/07/16 02:28:02;;;;;;;;;;;24.00;56.60;;;;;;4155437;28;20284;-48
2023/07/16 02:30:43;;;;;;;;;;;24.00;56.70;;;;;;4162993;28;19935;-48
2023/07/16 02:33:25;;;;;;;;;;;24.00;56.80;;;;;;4173820;28;19932;-48
2023/07/16 02:36:07;;;;;;;;;;;24.00;56.90;;;;;;4163225;28;19936;-49
2023/07/16 02:38:48;;;;;;;;;;;23.90;57.00;;;;;;4168411;28;20071;-47
2023/07/16 02:41:29;;;;;;;;;;;23.90;57.00;;;;;;4156606;28;19932;-46
2023/07/16 02:44:11;;;;;;;;;;;23.90;57.00;;;;;;4155140;28;19948;-46
2023/07/16 02:46:55;;;;;;;;;;;23.90;57.00;;;;;;4155799;28;19978;-50
2023/07/16 02:49:36;;;;;;;;;;;23.90;57.00;;;;;;4166258;28;20388;-50
2023/07/16 02:52:19;;;;;;;;;;;23.90;56.90;;;;;;4171886;28;19935;-49
2023/07/16 02:55:00;;;;;;;;;;;23.90;56.80;;;;;;4173466;28;19932;-46
2023/07/16 02:57:41;;;;;;;;;;;23.80;56.70;;;;;;4170214;28;19936;-48
2023/07/16 03:00:22;;;;;;;;;;;23.80;56.50;;;;;;4153959;28;20303;-49
2023/07/16 03:03:03;;;;;;;;;;;23.80;56.40;;;;;;4155453;28;20406;-52
2023/07/16 03:05:44;;;;;;;;;;;23.80;57.00;;;;;;4156599;28;19936;-48
2023/07/16 03:08:29;;;;;;;;;;;23.80;56.10;;;;;;4157412;28;19939;-49
2023/07/16 03:11:10;;;;;;;;;;;23.70;56.10;;;;;;4171845;28;20018;-50
2023/07/16 03:13:52;;;;;;;;;;;23.70;56.10;;;;;;4160481;28;20026;-49
2023/07/16 03:16:32;;;;;;;;;;;23.70;56.10;;;;;;4171864;28;20404;-47
2023/07/16 03:19:13;;;;;;;;;;;23.70;55.40;;;;;;4145465;28;19936;-45
2023/07/16 03:21:54;;;;;;;;;;;23.70;55.80;;;;;;4153358;28;20014;-45
2023/07/16 03:24:36;;;;;;;;;;;23.60;55.80;;;;;;4154413;28;19933;-45
2023/07/16 03:27:17;;;;;;;;;;;23.60;56.10;;;;;;4145185;28;19987;-44
2023/07/16 03:30:05;;;;;;;;;;;23.60;56.10;;;;;;4167530;28;19931;-44
2023/07/16 03:32:45;;;;;;;;;;;23.60;56.00;;;;;;4155959;28;19932;-48
2023/07/16 03:35:32;;;;;;;;;;;23.60;56.00;;;;;;4170563;28;20378;-44
2023/07/16 03:38:14;;;;;;;;;;;23.60;56.00;;;;;;4142114;28;20400;-46
2023/07/16 03:40:56;;;;;;;;;;;23.50;56.80;;;;;;4146188;28;20062;-46
2023/07/16 03:43:38;;;;;;;;;;;23.60;56.00;;;;;;4154103;28;20372;-48
2023/07/16 03:46:29;;;;;;;;;;;23.60;56.00;;;;;;4169449;28;19939;-46
2023/07/16 03:49:10;;;;;;;;;;;23.50;55.80;;;;;;4171131;28;20028;-48
2023/07/16 03:51:51;;;;;;;;;;;23.50;55.80;;;;;;4171030;28;19939;-47
2023/07/16 03:54:32;;;;;;;;;;;23.50;55.90;;;;;;4170846;28;19935;-47
2023/07/16 03:57:14;;;;;;;;;;;23.50;55.90;;;;;;4154634;28;19936;-45
2023/07/16 03:59:55;;;;;;;;;;;23.50;55.80;;;;;;4155811;28;20022;-46
2023/07/16 04:02:36;;;;;;;;;;;23.50;55.80;;;;;;4166090;28;19936;-48
2023/07/16 04:05:18;;;;;;;;;;;23.50;55.70;;;;;;4157484;28;19935;-48
2023/07/16 04:08:01;;;;;;;;;;;23.50;56.50;;;;;;4170414;28;19932;-52
2023/07/16 04:10:42;;;;;;;;;;;23.50;55.80;;;;;;4171674;28;19932;-50
2023/07/16 04:13:24;;;;;;;;;;;23.50;55.80;;;;;;4171834;28;19978;-47
2023/07/16 04:16:05;;;;;;;;;;;23.40;55.90;;;;;;4158199;28;19936;-46
2023/07/16 04:18:46;;;;;;;;;;;23.40;55.90;;;;;;4155317;28;20022;-45
2023/07/16 04:21:27;;;;;;;;;;;23.40;55.90;;;;;;4155177;28;19932;-46
2023/07/16 04:24:07;;;;;;;;;;;23.40;55.80;;;;;;4155206;28;20083;-50
2023/07/16 04:26:48;;;;;;;;;;;23.40;55.80;;;;;;4155200;28;19932;-47
2023/07/16 04:29:32;;;;;;;;;;;23.40;55.80;;;;;;4153654;28;24328;-47
2023/07/16 04:32:14;;;;;;;;;;;23.30;55.80;;;;;;4154830;28;19932;-47
2023/07/16 04:34:54;;;;;;;;;;;23.40;55.90;;;;;;4156496;28;19936;-49
2023/07/16 04:37:35;;;;;;;;;;;23.40;56.00;;;;;;4153300;28;20022;-49
2023/07/16 04:40:17;;;;;;;;;;;23.40;56.30;;;;;;4154772;28;20299;-48
2023/07/16 04:42:58;;;;;;;;;;;23.40;56.50;;;;;;4154644;28;19932;-46
2023/07/16 04:45:40;;;;;;;;;;;23.50;56.40;;;;;;4164280;28;19935;-51
2023/07/16 04:48:21;;;;;;;;;;;23.50;56.20;;;;;;4170623;28;20371;-46
2023/07/16 04:51:02;;;;;;;;;;;23.50;56.00;;;;;;4173635;28;19936;-51
2023/07/16 04:53:43;;;;;;;;;;;23.50;56.00;;;;;;4170855;28;20083;-50
2023/07/16 04:56:24;;;;;;;;;;;23.50;56.60;;;;;;4170843;28;19950;-51
2023/07/16 04:59:05;;;;;;;;;;;23.50;55.80;;;;;;4164601;28;19932;-49
2023/07/16 05:01:48;;;;;;;;;;;23.40;55.70;;;;;;4170248;28;19951;-50
2023/07/16 05:04:29;;;;;;;;;;;23.40;55.80;;;;;;4170802;28;20013;-52
2023/07/16 05:07:10;;;;;;;;;;;23.40;55.90;;;;;;4170595;28;19948;-50
2023/07/16 05:09:51;;;;;;;;;;;23.40;56.00;;;;;;4171137;28;19936;-51
2023/07/16 05:12:32;;;;;;;;;;;23.40;56.80;;;;;;4170495;28;19936;-50
2023/07/16 05:15:13;;;;;;;;;;;23.40;56.20;;;;;;4154139;28;19948;-52
2023/07/16 05:17:57;;;;;;;;;;;23.40;56.20;;;;;;4152847;28;19936;-48
2023/07/16 05:20:38;;;;;;;;;;;23.40;57.00;;;;;;4153994;28;19936;-51
2023/07/16 05:23:19;;;;;;;;;;;23.40;56.20;;;;;;4180137;28;19936;-50
2023/07/16 05:26:00;;;;;;;;;;;23.50;56.40;;;;;;4187788;28;19932;-51
2023/07/16 05:28:40;;;;;;;;;;;23.50;57.10;;;;;;4186650;28;20002;-51
2023/07/16 05:31:21;;;;;;;;;;;23.60;56.40;;;;;;4184504;28;19935;-50
2023/07/16 05:34:03;;;;;;;;;;;23.60;56.40;;;;;;4170805;28;19932;-47
2023/07/16 05:36:45;;;;;;;;;;;23.70;56.30;;;;;;4169927;28;19932;-51
2023/07/16 05:39:26;;;;;;;;;;;23.80;56.20;;;;;;4171027;28;19931;-46
2023/07/16 05:42:07;;;;;;;;;;;23.80;56.00;;;;;;4163102;28;19933;-49
2023/07/16 05:44:49;;;;;;;;;;;23.90;56.00;;;;;;4154475;28;19955;-47
2023/07/16 05:47:30;;;;;;;;;;;23.90;55.80;;;;;;4160719;28;20010;-49
2023/07/16 05:50:12;;;;;;;;;;;24.00;55.80;;;;;;4169771;28;19935;-51
2023/07/16 05:52:56;;;;;;;;;;;24.10;55.60;;;;;;4169124;28;20021;-50
2023/07/16 05:55:37;;;;;;;;;;;24.20;55.40;;;;;;4170182;28;20398;-44
2023/07/16 05:58:17;;;;;;;;;;;24.10;55.40;;;;;;4168141;28;19995;-45
2023/07/16 06:00:59;;;;;;;;;;;24.20;56.00;;;;;;4162547;28;20761;-46
2023/07/16 06:03:40;;;;;;;;;;;24.20;56.40;;;;;;4156571;28;20035;-45
2023/07/16 06:06:22;;;;;;;;;;;24.30;56.20;;;;;;4165520;28;20062;-45
2023/07/16 06:09:03;;;;;;;;;;;24.30;55.80;;;;;;4190083;28;19931;-45
2023/07/16 06:11:46;;;;;;;;;;;24.30;55.50;;;;;;4157642;28;20016;-45
2023/07/16 06:14:27;;;;;;;;;;;24.30;55.30;;;;;;4171416;28;19935;-45
2023/07/16 06:17:08;;;;;;;;;;;24.30;55.10;;;;;;4173510;28;19931;-46
2023/07/16 06:19:50;;;;;;;;;;;24.30;55.00;;;;;;4171374;28;20279;-50
2023/07/16 06:22:33;;;;;;;;;;;24.30;55.00;;;;;;4178288;28;20286;-48
2023/07/16 06:25:14;;;;;;;;;;;24.30;55.10;;;;;;4189565;28;19981;-50
2023/07/16 06:27:55;;;;;;;;;;;24.30;55.20;;;;;;4189471;28;19950;-48
2023/07/16 06:30:36;;;;;;;;;;;24.20;55.20;;;;;;4167916;28;20402;-47
2023/07/16 06:33:17;;;;;;;;;;;24.20;55.50;;;;;;4173365;28;20059;-50
2023/07/16 06:35:58;;;;;;;;;;;24.10;55.80;;;;;;4173973;28;19983;-47
2023/07/16 06:38:41;;;;;;;;;;;24.10;56.40;;;;;;4171422;28;19935;-50
2023/07/16 06:41:22;;;;;;;;;;;24.10;56.60;;;;;;4157220;28;20422;-54
2023/07/16 06:44:03;;;;;;;;;;;24.00;56.80;;;;;;4155577;28;19952;-50
2023/07/16 06:46:44;;;;;;;;;;;24.00;56.90;;;;;;4157017;28;19932;-50
2023/07/16 06:49:25;;;;;;;;;;;23.90;56.70;;;;;;4156184;28;19974;-51
2023/07/16 06:52:06;;;;;;;;;;;23.90;56.70;;;;;;4171690;28;19935;-51
2023/07/16 06:54:49;;;;;;;;;;;23.80;56.70;;;;;;4172847;28;19950;-50
2023/07/16 06:57:29;;;;;;;;;;;23.80;56.70;;;;;;4172052;28;19947;-50
2023/07/16 07:00:11;;;;;;;;;;;23.80;56.70;;;;;;4178755;28;19932;-49
2023/07/16 07:02:52;;;;;;;;;;;23.80;56.70;;;;;;4164606;28;20424;-50
2023/07/16 07:05:35;;;;;;;;;;;23.80;57.40;;;;;;4172169;28;20054;-53
2023/07/16 07:08:16;;;;;;;;;;;23.80;56.80;;;;;;4164067;28;19931;-51
2023/07/16 07:10:59;;;;;;;;;;;23.80;56.80;;;;;;4168000;28;20017;-53
2023/07/16 07:13:39;;;;;;;;;;;23.80;56.80;;;;;;4169029;28;19998;-54
2023/07/16 07:16:20;;;;;;;;;;;23.80;56.80;;;;;;4170988;28;20295;-53
2023/07/16 07:19:02;;;;;;;;;;;23.80;56.90;;;;;;4157101;28;20098;-50
2023/07/16 07:21:43;;;;;;;;;;;23.70;56.80;;;;;;4155596;28;19955;-49
2023/07/16 07:24:24;;;;;;;;;;;23.70;56.90;;;;;;4175602;28;20726;-49
2023/07/16 07:27:07;;;;;;;;;;;23.70;56.90;;;;;;4171769;28;19931;-54
2023/07/16 07:29:51;;;;;;;;;;;23.70;56.90;;;;;;4162695;28;19935;-50
2023/07/16 07:32:32;;;;;;;;;;;23.70;56.90;;;;;;4155837;28;19978;-48
2023/07/16 07:35:13;;;;;;;;;;;23.70;57.00;;;;;;4162863;28;20004;-52
2023/07/16 07:37:54;;;;;;;;;;;23.70;57.00;;;;;;4165553;28;19990;-53
2023/07/16 07:40:36;;;;;;;;;;;23.70;57.00;;;;;;4153511;28;20273;-49
2023/07/16 07:43:18;;;;;;;;;;;23.70;57.80;;;;;;4139851;28;19932;-50
2023/07/16 07:45:58;;;;;;;;;;;23.70;57.00;;;;;;4155328;28;19932;-50
2023/07/16 07:48:39;;;;;;;;;;;23.60;56.90;;;;;;4161727;28;20059;-48
2023/07/16 07:51:21;;;;;;;;;;;23.60;56.90;;;;;;4172283;28;19935;-52
2023/07/16 07:54:02;;;;;;;;;;;23.60;56.90;;;;;;4172402;28;20456;-48
2023/07/16 07:56:43;;;;;;;;;;;23.70;56.80;;;;;;4171650;28;20066;-53
2023/07/16 07:59:25;;;;;;;;;;;23.70;56.60;;;;;;4170398;28;19978;-52
2023/07/16 08:02:06;;;;;;;;;;;23.70;56.60;;;;;;4171909;28;19935;-56
2023/07/16 08:04:47;;;;;;;;;;;23.70;56.60;;;;;;4177596;28;19931;-52
2023/07/16 08:07:29;;;;;;;;;;;23.70;56.60;;;;;;4183522;28;19935;-52
2023/07/16 08:10:10;;;;;;;;;;;23.70;56.60;;;;;;4168882;28;20315;-51
2023/07/16 08:12:50;;;;;;;;;;;23.70;56.60;;;;;;4172637;28;20391;-51
2023/07/16 08:15:33;;;;;;;;;;;23.70;56.70;;;;;;4173047;28;19932;-50
2023/07/16 08:18:14;;;;;;;;;;;23.70;57.40;;;;;;4148270;28;19935;-45
2023/07/16 08:20:55;;;;;;;;;;;23.70;56.60;;;;;;4171828;28;19932;-45
2023/07/16 08:23:36;;;;;;;;;;;23.70;56.70;;;;;;4171282;28;19932;-48
2023/07/16 08:26:17;;;;;;;;;;;23.70;57.40;;;;;;4170445;28;19936;-46
2023/07/16 08:28:59;;;;;;;;;;;23.70;56.60;;;;;;4153327;28;20026;-45
2023/07/16 08:31:41;;;;;;;;;;;23.70;56.50;;;;;;4152786;28;19932;-48
2023/07/16 08:34:22;;;;;;;;;;;23.70;56.50;;;;;;4154504;28;20026;-50
2023/07/16 08:37:03;;;;;;;;;;;23.70;56.50;;;;;;4154008;28;19932;-49
2023/07/16 08:39:44;;;;;;;;;;;23.70;56.60;;;;;;4173870;28;19931;-49
2023/07/16 08:42:25;;;;;;;;;;;23.60;56.70;;;;;;4153568;28;19951;-46
2023/07/16 08:45:07;;;;;;;;;;;23.60;56.80;;;;;;4161030;28;20276;-47
2023/07/16 08:47:49;;;;;;;;;;;23.60;56.80;;;;;;4170561;28;19935;-49
2023/07/16 08:50:30;;;;;;;;;;;23.60;57.50;;;;;;4170602;28;19932;-49
2023/07/16 08:53:12;;;;;;;;;;;23.50;56.80;;;;;;4170556;28;19932;-46
2023/07/16 08:55:53;;;;;;;;;;;23.50;56.90;;;;;;4170971;28;19931;-46
2023/07/16 08:58:37;;;;;;;;;;;23.50;57.60;;;;;;4159139;28;19975;-46
2023/07/16 09:01:18;;;;;;;;;;;23.50;56.80;;;;;;4166473;28;19936;-51
2023/07/16 09:04:04;;;;;;;;;;;23.50;56.90;;;;;;4170171;28;20074;-49
2023/07/16 09:06:45;;;;;;;;;;;23.50;56.90;;;;;;4153656;28;20071;-48
2023/07/16 09:09:25;;;;;;;;;;;23.60;57.00;;;;;;4137916;28;19933;-50
2023/07/16 09:12:06;;;;;;;;;;;23.60;56.90;;;;;;4147557;28;20284;-52
2023/07/16 09:14:47;;;;;;;;;;;23.60;56.90;;;;;;4154631;28;19932;-50
2023/07/16 09:17:28;;;;;;;;;;;23.60;56.80;;;;;;4156120;28;19932;-52
2023/07/16 09:20:11;;;;;;;;;;;23.60;56.70;;;;;;4153972;28;20011;-46
2023/07/16 09:22:54;;;;;;;;;;;23.70;56.70;;;;;;4154408;28;19979;-49
2023/07/16 09:25:36;;;;;;;;;;;23.70;56.50;;;;;;4153536;28;20091;-50
2023/07/16 09:28:19;;;;;;;;;;;23.70;56.50;;;;;;4170858;28;19931;-50
2023/07/16 09:31:04;;;;;;;;;;;23.70;56.50;;;;;;4170641;28;20050;-48
2023/07/16 09:33:47;;;;;;;;;;;23.70;56.50;;;;;;4171308;28;20296;-49
2023/07/16 09:36:29;;;;;;;;;;;23.70;56.50;;;;;;4152709;28;19951;-52
2023/07/16 09:39:11;;;;;;;;;;;23.70;56.40;;;;;;4157143;28;19932;-53
2023/07/16 09:41:52;;;;;;;;;;;23.70;56.40;;;;;;4183842;28;19936;-51
2023/07/16 09:44:33;;;;;;;;;;;23.70;56.40;;;;;;4172191;28;19936;-50
2023/07/16 09:47:14;;;;;;;;;;;23.70;57.10;;;;;;4156106;28;20391;-48
2023/07/16 09:49:55;;;;;;;;;;;23.70;56.40;;;;;;4156780;28;19940;-53
2023/07/16 09:52:37;;;;;;;;;;;23.70;56.40;;;;;;4146225;28;19937;-49
2023/07/16 09:55:19;;;;;;;;;;;23.70;56.50;;;;;;4158722;28;20295;-49
2023/07/16 09:58:01;;;;;;;;;;;23.70;56.50;;;;;;4157080;28;20272;-52
2023/07/16 10:00:42;;;;;;;;;;;23.70;56.50;;;;;;4168977;28;19974;-50
2023/07/16 10:03:24;;;;;;;;;;;23.70;56.50;;;;;;4158889;28;19932;-51
2023/07/16 10:06:08;;;;;;;;;;;23.70;56.50;;;;;;4168892;28;19932;-50
2023/07/16 10:08:51;;;;;;;;;;;23.70;56.50;;;;;;4173911;28;20054;-52
2023/07/16 10:11:37;;;;;;;;;;;23.60;56.50;;;;;;4172313;28;19932;-53
2023/07/16 10:14:25;;;;;;;;;;;23.70;57.00;;;;;;4171718;28;20319;-50
2023/07/16 10:17:06;;;;;;;;;;;23.70;56.70;;;;;;4158513;28;19932;-46
2023/07/16 10:19:48;;;;;;;;;;;23.70;56.50;;;;;;4155395;28;19979;-48
2023/07/16 10:22:33;;;;;;;;;;;23.70;56.50;;;;;;4156715;28;19932;-49
2023/07/16 10:25:24;;;;;;;;;;;23.70;56.50;;;;;;4149904;28;20375;-51
2023/07/16 10:28:04;;;;;;;;;;;23.70;56.50;;;;;;4149974;28;20483;-47
2023/07/16 10:30:45;;;;;;;;;;;23.70;56.50;;;;;;4155502;28;20023;-52
2023/07/16 10:33:26;;;;;;;;;;;23.70;56.50;;;;;;4163969;28;19955;-50
2023/07/16 10:36:06;;;;;;;;;;;23.70;56.50;;;;;;4173145;28;19931;-52
2023/07/16 10:38:47;;;;;;;;;;;23.80;57.20;;;;;;4163808;28;19990;-50
2023/07/16 10:41:29;;;;;;;;;;;23.70;56.50;;;;;;4173807;28;20394;-46
2023/07/16 10:44:10;;;;;;;;;;;23.80;56.50;;;;;;4171992;28;20490;-46
2023/07/16 10:46:51;;;;;;;;;;;23.80;56.60;;;;;;4171973;28;20063;-52
2023/07/16 10:49:32;;;;;;;;;;;23.80;56.50;;;;;;4167648;28;19932;-52
2023/07/16 10:52:13;;;;;;;;;;;23.80;56.50;;;;;;4161824;28;20063;-52
2023/07/16 10:54:55;;;;;;;;;;;23.80;56.30;;;;;;4173013;28;19932;-50
2023/07/16 10:57:37;;;;;;;;;;;23.80;56.10;;;;;;4172291;28;19932;-51
2023/07/16 11:00:18;;;;;;;;;;;23.80;56.00;;;;;;4160933;28;20014;-51
2023/07/16 11:02:59;;;;;;;;;;;23.80;56.00;;;;;;4170696;28;19936;-50
2023/07/16 11:05:40;;;;;;;;;;;23.80;56.00;;;;;;4171004;28;20002;-53
2023/07/16 11:08:24;;;;;;;;;;;23.80;56.10;;;;;;4171258;28;19936;-48
2023/07/16 11:11:05;;;;;;;;;;;23.80;56.20;;;;;;4154820;28;19947;-51
2023/07/16 11:13:48;;;;;;;;;;;23.80;56.20;;;;;;4156365;28;19948;-50
2023/07/16 11:16:33;;;;;;;;;;;23.80;56.20;;;;;;4156529;28;20448;-50
2023/07/16 11:19:14;;;;;;;;;;;23.80;57.00;;;;;;4163691;28;19933;-54
2023/07/16 11:21:55;;;;;;;;;;;23.80;56.30;;;;;;4155750;28;19939;-52
2023/07/16 11:24:40;;;;;;;;;;;23.80;56.40;;;;;;4160876;28;19936;-53
2023/07/16 11:27:22;;;;;;;;;;;23.80;56.50;;;;;;4171178;28;19932;-53
2023/07/16 11:30:04;;;;;;;;;;;23.80;56.70;;;;;;4172349;28;19935;-53
2023/07/16 11:32:48;;;;;;;;;;;23.80;56.70;;;;;;4170686;28;20410;-54
2023/07/16 11:35:29;;;;;;;;;;;23.80;56.70;;;;;;4182166;28;20066;-54
2023/07/16 11:38:11;;;;;;;;;;;23.90;57.40;;;;;;4170996;28;19977;-52
2023/07/16 11:40:52;;;;;;;;;;;23.90;56.60;;;;;;4187951;28;20443;-54
2023/07/16 11:43:34;;;;;;;;;;;23.90;56.60;;;;;;4188669;28;19930;-54
2023/07/16 11:46:17;;;;;;;;;;;23.90;56.50;;;;;;4154491;28;20034;-53
2023/07/16 11:48:59;;;;;;;;;;;23.90;56.40;;;;;;4153889;28;19936;-53
2023/07/16 11:51:40;;;;;;;;;;;23.90;56.40;;;;;;4154151;28;19979;-48
2023/07/16 11:54:21;;;;;;;;;;;23.90;56.40;;;;;;4163431;28;20623;-51
2023/07/16 11:57:02;;;;;;;;;;;23.80;56.40;;;;;;4187209;28;19935;-50
2023/07/16 11:59:43;;;;;;;;;;;23.90;56.40;;;;;;4186148;28;19947;-52
2023/07/16 12:02:26;;;;;;;;;;;23.80;57.00;;;;;;4187704;28;19935;-50
2023/07/16 12:05:08;;;;;;;;;;;23.80;56.30;;;;;;4177003;28;20077;-50
2023/07/16 12:07:51;;;;;;;;;;;23.80;56.40;;;;;;4171521;28;20063;-51
2023/07/16 12:10:31;;;;;;;;;;;23.80;56.40;;;;;;4170249;28;20391;-52
2023/07/16 12:13:12;;;;;;;;;;;23.80;56.40;;;;;;4170607;28;19948;-53
2023/07/16 12:15:53;;;;;;;;;;;23.80;56.50;;;;;;4143257;28;19932;-54
2023/07/16 12:18:36;;;;;;;;;;;23.80;56.60;;;;;;4139240;28;19948;-49
2023/07/16 12:21:17;;;;;;;;;;;23.80;56.80;;;;;;4138133;28;20292;-48
2023/07/16 12:23:57;;;;;;;;;;;23.80;56.90;;;;;;4144917;28;19998;-53
2023/07/16 12:26:38;;;;;;;;;;;23.80;57.00;;;;;;4169988;28;19963;-51
2023/07/16 12:29:19;;;;;;;;;;;23.80;57.10;;;;;;4188575;28;19932;-52
2023/07/16 12:32:00;;;;;;;;;;;23.80;57.10;;;;;;4187444;28;19977;-50
2023/07/16 12:34:42;;;;;;;;;;;23.80;57.10;;;;;;4181345;28;19977;-50
2023/07/16 12:37:23;;;;;;;;;;;23.80;57.10;;;;;;4171201;28;19936;-52
2023/07/16 12:40:05;;;;;;;;;;;23.80;57.10;;;;;;4170719;28;19936;-50
2023/07/16 12:42:46;;;;;;;;;;;23.80;57.80;;;;;;4171572;28;20066;-52
2023/07/16 12:45:26;;;;;;;;;;;23.80;57.20;;;;;;4170919;28;20341;-49
2023/07/16 12:48:07;;;;;;;;;;;23.80;57.30;;;;;;4170130;28;20308;-54
2023/07/16 12:50:50;;;;;;;;;;;23.80;57.30;;;;;;4171064;28;19936;-49
2023/07/16 12:53:30;;;;;;;;;;;23.80;57.30;;;;;;4166989;28;19936;-51
2023/07/16 12:56:11;;;;;;;;;;;23.80;57.30;;;;;;4169378;28;19932;-49
2023/07/16 12:58:52;;;;;;;;;;;23.80;57.30;;;;;;4158523;28;19936;-52
2023/07/16 13:01:33;;;;;;;;;;;23.80;57.40;;;;;;4153322;28;19936;-55
2023/07/16 13:04:14;;;;;;;;;;;23.80;57.50;;;;;;4184447;28;19932;-47
2023/07/16 13:06:56;;;;;;;;;;;23.80;57.60;;;;;;4186851;28;20295;-49
2023/07/16 13:09:37;;;;;;;;;;;23.80;57.90;;;;;;4186321;28;20425;-49
2023/07/16 13:12:17;;;;;;;;;;;23.80;58.10;;;;;;4187624;28;19950;-48
2023/07/16 13:14:58;;;;;;;;;;;23.80;58.30;;;;;;4186947;28;19931;-50
2023/07/16 13:17:40;;;;;;;;;;;23.80;58.50;;;;;;4187224;28;20030;-55
2023/07/16 13:20:21;;;;;;;;;;;23.80;58.60;;;;;;4186839;28;19935;-47
2023/07/16 13:23:04;;;;;;;;;;;23.80;58.70;;;;;;4186773;28;20390;-48
2023/07/16 13:25:45;;;;;;;;;;;23.80;59.60;;;;;;4187168;28;20449;-46
2023/07/16 13:28:25;;;;;;;;;;;23.80;59.10;;;;;;4186189;28;19935;-49
2023/07/16 13:31:06;;;;;;;;;;;23.80;59.30;;;;;;4186057;28;19948;-47
2023/07/16 13:33:47;;;;;;;;;;;23.80;60.50;;;;;;4187636;28;20343;-48
2023/07/16 13:36:28;;;;;;;;;;;23.80;59.80;;;;;;4187089;28;20278;-47
2023/07/16 13:39:13;;;;;;;;;;;23.80;60.00;;;;;;4187059;28;20414;-50
2023/07/16 13:41:54;;;;;;;;;;;23.80;60.20;;;;;;4186810;28;19931;-54
2023/07/16 13:44:42;;;;;;;;;;;23.80;60.40;;;;;;4153759;28;19948;-52
2023/07/16 13:47:23;;;;;;;;;;;23.80;60.40;;;;;;4154236;28;20062;-55
2023/07/16 13:50:04;;;;;;;;;;;23.80;60.50;;;;;;4152868;28;19936;-53
2023/07/16 13:52:44;;;;;;;;;;;23.80;60.50;;;;;;4158641;28;19932;-51
2023/07/16 13:55:26;;;;;;;;;;;23.80;60.40;;;;;;4169912;28;19935;-55
2023/07/16 13:58:07;;;;;;;;;;;23.80;60.30;;;;;;4170955;28;19932;-52
2023/07/16 14:00:48;;;;;;;;;;;23.80;60.10;;;;;;4170959;28;19935;-51
2023/07/16 14:03:29;;;;;;;;;;;23.80;60.00;;;;;;4170938;28;19935;-49
2023/07/16 14:06:10;;;;;;;;;;;23.80;59.90;;;;;;4168011;28;19932;-48
2023/07/16 14:08:51;;;;;;;;;;;23.80;60.00;;;;;;4170183;28;19936;-54
2023/07/16 14:11:33;;;;;;;;;;;23.80;60.20;;;;;;4170729;28;19936;-54
2023/07/16 14:14:14;;;;;;;;;;;23.80;60.10;;;;;;4153548;28;19952;-51
2023/07/16 14:16:55;;;;;;;;;;;23.80;60.00;;;;;;4154013;28;19947;-50
2023/07/16 14:19:36;;;;;;;;;;;23.80;60.00;;;;;;4137634;28;19971;-50
2023/07/16 14:22:17;;;;;;;;;;;23.80;60.10;;;;;;4157175;28;20563;-51
2023/07/16 14:24:58;;;;;;;;;;;23.90;60.20;;;;;;4173714;28;19932;-49
2023/07/16 14:27:40;;;;;;;;;;;23.90;60.10;;;;;;4166348;28;19982;-49
2023/07/16 14:30:21;;;;;;;;;;;23.90;59.90;;;;;;4172796;28;19931;-48
2023/07/16 14:33:03;;;;;;;;;;;23.90;59.50;;;;;;4173077;28;20282;-54
2023/07/16 14:35:45;;;;;;;;;;;23.90;59.30;;;;;;4172907;28;20463;-50
2023/07/16 14:38:26;;;;;;;;;;;24.00;59.20;;;;;;4171812;28;19932;-54
2023/07/16 14:41:07;;;;;;;;;;;23.90;59.20;;;;;;4170485;28;19936;-48
2023/07/16 14:43:49;;;;;;;;;;;23.90;59.20;;;;;;4173192;28;20018;-50
2023/07/16 14:46:30;;;;;;;;;;;24.00;59.30;;;;;;4171467;28;20010;-50
2023/07/16 14:49:11;;;;;;;;;;;24.00;59.20;;;;;;4173038;28;19935;-49
2023/07/16 14:51:52;;;;;;;;;;;24.10;59.10;;;;;;4168312;28;19979;-48
2023/07/16 14:54:35;;;;;;;;;;;24.10;59.00;;;;;;4163197;28;20415;-49
2023/07/16 14:57:17;;;;;;;;;;;24.10;59.10;;;;;;4153505;28;19932;-49
2023/07/16 14:59:59;;;;;;;;;;;24.10;58.60;;;;;;4158711;28;19936;-47
2023/07/16 15:02:40;;;;;;;;;;;24.10;58.40;;;;;;4177145;28;19932;-46
2023/07/16 15:05:22;;;;;;;;;;;24.10;58.20;;;;;;4187000;28;19931;-46
2023/07/16 15:08:03;;;;;;;;;;;24.20;58.00;;;;;;4187183;28;19935;-46
2023/07/16 15:10:44;;;;;;;;;;;24.20;57.70;;;;;;4187321;28;19931;-46
2023/07/16 15:13:27;;;;;;;;;;;24.20;57.60;;;;;;4186028;28;19935;-49
2023/07/16 15:16:11;;;;;;;;;;;24.20;57.40;;;;;;4187973;28;20098;-52
2023/07/16 15:18:52;;;;;;;;;;;24.20;57.10;;;;;;4187306;28;19931;-49
2023/07/16 15:21:33;;;;;;;;;;;24.20;57.00;;;;;;4188410;28;19931;-46
2023/07/16 15:24:14;;;;;;;;;;;24.20;57.00;;;;;;4178245;28;19932;-52
2023/07/16 15:26:55;;;;;;;;;;;24.30;57.00;;;;;;4170714;28;19999;-47
2023/07/16 15:29:35;;;;;;;;;;;24.20;56.80;;;;;;4172044;28;19939;-47
2023/07/16 15:32:18;;;;;;;;;;;24.30;56.80;;;;;;4170938;28;19951;-47
2023/07/16 15:34:58;;;;;;;;;;;24.20;56.70;;;;;;4154840;28;19936;-47
2023/07/16 15:37:38;;;;;;;;;;;24.20;56.70;;;;;;4155923;28;19932;-45
2023/07/16 15:40:19;;;;;;;;;;;24.20;56.50;;;;;;4155365;28;19936;-51